sensor_id;sensor_type;location;lat;lon;timestamp;temperature;humidity
15115;DHT22;7658;51.456;7.622;2023-02-26T00:01:21;0.10;99.90
15115;DHT22;7658;51.456;7.622;2023-02-26T00:03:50;0.00;99.90
15115;DHT22;7658;51.456;7.622;2023-02-26T00:06:16;0.00;99.90
15115;DHT22;7658;51.456;7.622;2023-02-26T00:08:42;0.00;99.90
15115;DHT22;7658;51.456;7.622;2023-02-26T00:11:09;0.00;99.90
15115;DHT22;7658;51.456;7.622;2023-02-26T00:13:36;-0.10;99.90
15115;DHT22;7658;51.456;7.622;2023-02-26T00:16:10;-0.10;99.90
15115;DHT22;7658;51.456;7.622;2023-02-26T00:18:38;-0.10;99.90
15115;DHT22;7658;51.456;7.622;2023-02-26T00:21:04;-0.10;99.90
15115;DHT22;7658;51.456;7.622;2023-02-26T00:23:30;-0.10;99.90
15115;DHT22;7658;51.456;7.622;2023-02-26T00:25:57;-0.10;99.90
15115;DHT22;7658;51.456;7.622;2023-02-26T00:28:23;-0.20;99.90
15115;DHT22;7658;51.456;7.622;2023-02-26T00:30:49;-0.20;99.90
15115;DHT22;7658;51.456;7.622;2023-02-26T00:33:15;-0.20;99.90
15115;DHT22;7658;51.456;7.622;2023-02-26T00:35:41;-0.30;99.90
15115;DHT22;7658;51.456;7.622;2023-02-26T00:38:11;-0.30;99.90
15115;DHT22;7658;51.456;7.622;2023-02-26T00:40:48;-0.30;99.90
15115;DHT22;7658;51.456;7.622;2023-02-26T00:43:19;-0.30;99.90
15115;DHT22;7658;51.456;7.622;2023-02-26T00:49:00;-0.30;99.90
15115;DHT22;7658;51.456;7.622;2023-02-26T00:52:01;-0.40;99.90
15115;DHT22;7658;51.456;7.622;2023-02-26T00:54:29;-0.40;99.90
15115;DHT22;7658;51.456;7.622;2023-02-26T00:56:56;-0.40;99.90
15115;DHT22;7658;51.456;7.622;2023-02-26T00:59:23;-0.50;99.90
15115;DHT22;7658;51.456;7.622;2023-02-26T01:01:50;-0.60;99.90
15115;DHT22;7658;51.456;7.622;2023-02-26T01:04:19;-0.70;99.90
15115;DHT22;7658;51.456;7.622;2023-02-26T01:06:51;-0.70;99.90
15115;DHT22;7658;51.456;7.622;2023-02-26T01:09:27;-0.70;99.90
15115;DHT22;7658;51.456;7.622;2023-02-26T01:11:56;-0.70;99.90
15115;DHT22;7658;51.456;7.622;2023-02-26T01:14:23;-0.80;99.90
15115;DHT22;7658;51.456;7.622;2023-02-26T01:22:24;-0.80;99.90
15115;DHT22;7658;51.456;7.622;2023-02-26T01:24:58;-0.90;99.90
15115;DHT22;7658;51.456;7.622;2023-02-26T01:27:26;-1.00;99.90
15115;DHT22;7658;51.456;7.622;2023-02-26T01:29:52;-1.00;99.90
15115;DHT22;7658;51.456;7.622;2023-02-26T01:41:21;-1.00;99.90
15115;DHT22;7658;51.456;7.622;2023-02-26T01:47:22;-1.00;99.90
15115;DHT22;7658;51.456;7.622;2023-02-26T01:49:51;-0.90;99.90
15115;DHT22;7658;51.456;7.622;2023-02-26T01:55:21;-1.00;99.90
15115;DHT22;7658;51.456;7.622;2023-02-26T01:57:49;-1.10;99.90
15115;DHT22;7658;51.456;7.622;2023-02-26T02:00:17;-1.10;99.90
15115;DHT22;7658;51.456;7.622;2023-02-26T02:02:43;-1.10;99.90
15115;DHT22;7658;51.456;7.622;2023-02-26T02:05:31;-1.20;99.90
15115;DHT22;7658;51.456;7.622;2023-02-26T02:07:59;-1.20;99.90
15115;DHT22;7658;51.456;7.622;2023-02-26T02:10:26;-1.20;99.90
15115;DHT22;7658;51.456;7.622;2023-02-26T02:21:06;-1.20;99.90
15115;DHT22;7658;51.456;7.622;2023-02-26T02:23:43;-1.20;99.90
15115;DHT22;7658;51.456;7.622;2023-02-26T02:31:37;-1.20;99.90
15115;DHT22;7658;51.456;7.622;2023-02-26T02:39:52;-1.00;99.90
15115;DHT22;7658;51.456;7.622;2023-02-26T02:42:27;-1.00;99.90
15115;DHT22;7658;51.456;7.622;2023-02-26T02:45:06;-1.00;99.90
15115;DHT22;7658;51.456;7.622;2023-02-26T02:47:37;-1.00;99.90
15115;DHT22;7658;51.456;7.622;2023-02-26T02:50:29;-1.10;99.90
15115;DHT22;7658;51.456;7.622;2023-02-26T02:53:08;-1.10;99.90
15115;DHT22;7658;51.456;7.622;2023-02-26T02:55:43;-1.00;99.90
15115;DHT22;7658;51.456;7.622;2023-02-26T02:58:14;-1.10;99.90
15115;DHT22;7658;51.456;7.622;2023-02-26T03:00:47;-1.00;99.90
15115;DHT22;7658;51.456;7.622;2023-02-26T03:06:08;-1.00;99.90
15115;DHT22;7658;51.456;7.622;2023-02-26T03:08:37;-1.00;99.90
15115;DHT22;7658;51.456;7.622;2023-02-26T03:11:06;-1.00;99.90
15115;DHT22;7658;51.456;7.622;2023-02-26T03:13:33;-1.00;99.90
15115;DHT22;7658;51.456;7.622;2023-02-26T03:24:07;-1.10;99.90
15115;DHT22;7658;51.456;7.622;2023-02-26T03:26:43;-1.10;99.90
15115;DHT22;7658;51.456;7.622;2023-02-26T03:29:16;-1.10;99.90
15115;DHT22;7658;51.456;7.622;2023-02-26T03:31:55;-1.10;99.90
15115;DHT22;7658;51.456;7.622;2023-02-26T03:34:36;-1.10;99.90
15115;DHT22;7658;51.456;7.622;2023-02-26T03:37:12;-1.10;99.90
15115;DHT22;7658;51.456;7.622;2023-02-26T03:39:47;-1.00;99.90
15115;DHT22;7658;51.456;7.622;2023-02-26T03:45:18;-1.00;99.90
15115;DHT22;7658;51.456;7.622;2023-02-26T03:47:49;-1.00;99.90
15115;DHT22;7658;51.456;7.622;2023-02-26T03:50:30;-1.00;99.90
15115;DHT22;7658;51.456;7.622;2023-02-26T03:52:57;-1.00;99.90
15115;DHT22;7658;51.456;7.622;2023-02-26T03:55:58;-1.00;99.90
15115;DHT22;7658;51.456;7.622;2023-02-26T03:58:24;-1.00;99.90
15115;DHT22;7658;51.456;7.622;2023-02-26T04:00:58;-1.00;99.90
15115;DHT22;7658;51.456;7.622;2023-02-26T04:03:41;-1.00;99.90
15115;DHT22;7658;51.456;7.622;2023-02-26T04:06:09;-1.00;99.90
15115;DHT22;7658;51.456;7.622;2023-02-26T04:08:36;-1.00;99.90
15115;DHT22;7658;51.456;7.622;2023-02-26T04:11:09;-1.00;99.90
15115;DHT22;7658;51.456;7.622;2023-02-26T04:13:36;-1.00;99.90
15115;DHT22;7658;51.456;7.622;2023-02-26T04:16:02;-1.00;99.90
15115;DHT22;7658;51.456;7.622;2023-02-26T04:18:27;-1.00;99.90
15115;DHT22;7658;51.456;7.622;2023-02-26T04:20:53;-1.10;99.90
15115;DHT22;7658;51.456;7.622;2023-02-26T04:23:19;-1.10;99.90
15115;DHT22;7658;51.456;7.622;2023-02-26T04:25:45;-1.10;99.90
15115;DHT22;7658;51.456;7.622;2023-02-26T04:28:11;-1.00;99.90
15115;DHT22;7658;51.456;7.622;2023-02-26T04:30:37;-1.10;99.90
15115;DHT22;7658;51.456;7.622;2023-02-26T04:33:03;-1.10;99.90
15115;DHT22;7658;51.456;7.622;2023-02-26T04:35:28;-1.10;99.90
15115;DHT22;7658;51.456;7.622;2023-02-26T04:37:54;-1.10;99.90
15115;DHT22;7658;51.456;7.622;2023-02-26T04:40:20;-1.20;99.90
15115;DHT22;7658;51.456;7.622;2023-02-26T04:42:48;-1.20;99.90
15115;DHT22;7658;51.456;7.622;2023-02-26T04:45:14;-1.20;99.90
15115;DHT22;7658;51.456;7.622;2023-02-26T04:47:40;-1.30;99.90
15115;DHT22;7658;51.456;7.622;2023-02-26T04:50:06;-1.30;99.90
15115;DHT22;7658;51.456;7.622;2023-02-26T04:52:32;-1.30;99.90
15115;DHT22;7658;51.456;7.622;2023-02-26T04:54:58;-1.30;99.90
15115;DHT22;7658;51.456;7.622;2023-02-26T04:57:24;-1.30;99.90
15115;DHT22;7658;51.456;7.622;2023-02-26T04:59:50;-1.30;99.90
15115;DHT22;7658;51.456;7.622;2023-02-26T05:02:15;-1.30;99.90
15115;DHT22;7658;51.456;7.622;2023-02-26T05:04:41;-1.40;99.90
15115;DHT22;7658;51.456;7.622;2023-02-26T05:07:07;-1.40;99.90
15115;DHT22;7658;51.456;7.622;2023-02-26T05:09:32;-1.40;99.90
15115;DHT22;7658;51.456;7.622;2023-02-26T05:11:58;-1.40;99.90
15115;DHT22;7658;51.456;7.622;2023-02-26T05:14:24;-1.40;99.90
15115;DHT22;7658;51.456;7.622;2023-02-26T05:16:50;-1.40;99.90
15115;DHT22;7658;51.456;7.622;2023-02-26T05:19:16;-1.50;99.90
15115;DHT22;7658;51.456;7.622;2023-02-26T05:21:41;-1.50;99.90
15115;DHT22;7658;51.456;7.622;2023-02-26T05:24:07;-1.50;99.90
15115;DHT22;7658;51.456;7.622;2023-02-26T05:26:33;-1.50;99.90
15115;DHT22;7658;51.456;7.622;2023-02-26T05:28:58;-1.50;99.90
15115;DHT22;7658;51.456;7.622;2023-02-26T05:31:24;-1.60;99.90
15115;DHT22;7658;51.456;7.622;2023-02-26T05:33:51;-1.50;99.90
15115;DHT22;7658;51.456;7.622;2023-02-26T05:36:17;-1.60;99.90
15115;DHT22;7658;51.456;7.622;2023-02-26T05:38:43;-1.60;99.90
15115;DHT22;7658;51.456;7.622;2023-02-26T05:41:08;-1.60;99.90
15115;DHT22;7658;51.456;7.622;2023-02-26T05:43:34;-1.60;99.90
15115;DHT22;7658;51.456;7.622;2023-02-26T05:46:00;-1.60;99.90
15115;DHT22;7658;51.456;7.622;2023-02-26T05:48:26;-1.70;99.90
15115;DHT22;7658;51.456;7.622;2023-02-26T05:50:52;-1.70;99.90
15115;DHT22;7658;51.456;7.622;2023-02-26T05:53:18;-1.70;99.90
15115;DHT22;7658;51.456;7.622;2023-02-26T05:55:44;-1.70;99.90
15115;DHT22;7658;51.456;7.622;2023-02-26T05:58:10;-1.60;99.90
15115;DHT22;7658;51.456;7.622;2023-02-26T06:00:36;-1.60;99.90
15115;DHT22;7658;51.456;7.622;2023-02-26T06:03:01;-1.60;99.90
15115;DHT22;7658;51.456;7.622;2023-02-26T06:05:27;-1.60;99.90
15115;DHT22;7658;51.456;7.622;2023-02-26T06:07:53;-1.70;99.90
15115;DHT22;7658;51.456;7.622;2023-02-26T06:10:19;-1.70;99.90
15115;DHT22;7658;51.456;7.622;2023-02-26T06:12:45;-1.70;99.90
15115;DHT22;7658;51.456;7.622;2023-02-26T06:15:11;-1.70;99.90
15115;DHT22;7658;51.456;7.622;2023-02-26T06:17:39;-1.80;99.90
15115;DHT22;7658;51.456;7.622;2023-02-26T06:20:05;-1.80;99.90
15115;DHT22;7658;51.456;7.622;2023-02-26T06:22:31;-1.80;99.90
15115;DHT22;7658;51.456;7.622;2023-02-26T06:24:57;-1.80;99.90
15115;DHT22;7658;51.456;7.622;2023-02-26T06:27:23;-1.80;99.90
15115;DHT22;7658;51.456;7.622;2023-02-26T06:29:49;-1.80;99.90
15115;DHT22;7658;51.456;7.622;2023-02-26T06:32:15;-1.80;99.90
15115;DHT22;7658;51.456;7.622;2023-02-26T06:34:40;-1.80;99.90
15115;DHT22;7658;51.456;7.622;2023-02-26T06:37:06;-1.90;99.90
15115;DHT22;7658;51.456;7.622;2023-02-26T06:39:33;-1.90;99.90
15115;DHT22;7658;51.456;7.622;2023-02-26T06:41:58;-1.80;99.90
15115;DHT22;7658;51.456;7.622;2023-02-26T06:44:24;-1.90;99.90
15115;DHT22;7658;51.456;7.622;2023-02-26T06:46:50;-1.80;99.90
15115;DHT22;7658;51.456;7.622;2023-02-26T06:49:16;-1.80;99.90
15115;DHT22;7658;51.456;7.622;2023-02-26T06:51:41;-1.80;99.90
15115;DHT22;7658;51.456;7.622;2023-02-26T06:54:07;-1.70;99.90
15115;DHT22;7658;51.456;7.622;2023-02-26T06:56:33;-1.70;99.90
15115;DHT22;7658;51.456;7.622;2023-02-26T06:58:59;-1.70;99.90
15115;DHT22;7658;51.456;7.622;2023-02-26T07:01:25;-1.60;99.90
15115;DHT22;7658;51.456;7.622;2023-02-26T07:03:51;-1.50;99.90
15115;DHT22;7658;51.456;7.622;2023-02-26T07:06:17;-1.50;99.90
15115;DHT22;7658;51.456;7.622;2023-02-26T07:08:43;-1.40;99.90
15115;DHT22;7658;51.456;7.622;2023-02-26T07:11:08;-1.40;99.90
15115;DHT22;7658;51.456;7.622;2023-02-26T07:13:37;-1.30;99.90
15115;DHT22;7658;51.456;7.622;2023-02-26T07:16:04;-1.20;99.90
15115;DHT22;7658;51.456;7.622;2023-02-26T07:18:33;-1.10;99.90
15115;DHT22;7658;51.456;7.622;2023-02-26T07:20:59;-1.00;99.90
15115;DHT22;7658;51.456;7.622;2023-02-26T07:23:25;-1.00;99.90
15115;DHT22;7658;51.456;7.622;2023-02-26T07:25:51;-0.90;99.90
15115;DHT22;7658;51.456;7.622;2023-02-26T07:28:16;-0.90;99.90
15115;DHT22;7658;51.456;7.622;2023-02-26T07:30:42;-0.90;99.90
15115;DHT22;7658;51.456;7.622;2023-02-26T07:33:08;-0.90;99.90
15115;DHT22;7658;51.456;7.622;2023-02-26T07:35:34;-0.90;99.90
15115;DHT22;7658;51.456;7.622;2023-02-26T07:38:00;-0.90;99.90
15115;DHT22;7658;51.456;7.622;2023-02-26T07:40:26;-0.80;99.90
15115;DHT22;7658;51.456;7.622;2023-02-26T07:42:52;-0.80;99.90
15115;DHT22;7658;51.456;7.622;2023-02-26T07:45:18;-0.80;99.90
15115;DHT22;7658;51.456;7.622;2023-02-26T07:47:48;-0.70;99.90
15115;DHT22;7658;51.456;7.622;2023-02-26T07:50:13;-0.40;99.90
15115;DHT22;7658;51.456;7.622;2023-02-26T07:52:40;-0.30;99.90
15115;DHT22;7658;51.456;7.622;2023-02-26T07:55:07;-0.20;99.90
15115;DHT22;7658;51.456;7.622;2023-02-26T07:57:33;-0.30;99.90
15115;DHT22;7658;51.456;7.622;2023-02-26T07:59:58;-0.20;99.90
15115;DHT22;7658;51.456;7.622;2023-02-26T08:02:24;-0.20;99.90
15115;DHT22;7658;51.456;7.622;2023-02-26T08:04:50;-0.10;99.90
15115;DHT22;7658;51.456;7.622;2023-02-26T08:07:16;0.10;99.90
15115;DHT22;7658;51.456;7.622;2023-02-26T08:09:42;0.40;99.90
15115;DHT22;7658;51.456;7.622;2023-02-26T08:12:08;0.60;99.90
15115;DHT22;7658;51.456;7.622;2023-02-26T08:14:34;0.80;99.90
15115;DHT22;7658;51.456;7.622;2023-02-26T08:16:59;0.90;99.90
15115;DHT22;7658;51.456;7.622;2023-02-26T08:19:25;1.00;99.90
15115;DHT22;7658;51.456;7.622;2023-02-26T08:21:51;1.00;99.90
15115;DHT22;7658;51.456;7.622;2023-02-26T08:24:17;1.10;99.90
15115;DHT22;7658;51.456;7.622;2023-02-26T08:26:42;1.10;99.90
15115;DHT22;7658;51.456;7.622;2023-02-26T08:29:09;1.20;99.90
15115;DHT22;7658;51.456;7.622;2023-02-26T08:31:35;1.20;99.90
15115;DHT22;7658;51.456;7.622;2023-02-26T08:34:01;1.40;99.90
15115;DHT22;7658;51.456;7.622;2023-02-26T08:36:26;1.50;99.90
15115;DHT22;7658;51.456;7.622;2023-02-26T08:38:52;1.60;99.90
15115;DHT22;7658;51.456;7.622;2023-02-26T08:41:18;1.60;99.90
15115;DHT22;7658;51.456;7.622;2023-02-26T08:43:44;1.70;99.90
15115;DHT22;7658;51.456;7.622;2023-02-26T08:46:09;1.70;99.90
15115;DHT22;7658;51.456;7.622;2023-02-26T08:48:35;1.80;99.90
15115;DHT22;7658;51.456;7.622;2023-02-26T08:51:01;1.80;99.90
15115;DHT22;7658;51.456;7.622;2023-02-26T08:53:27;1.90;99.90
15115;DHT22;7658;51.456;7.622;2023-02-26T08:55:53;2.10;99.90
15115;DHT22;7658;51.456;7.622;2023-02-26T08:58:19;2.20;99.90
15115;DHT22;7658;51.456;7.622;2023-02-26T09:00:45;2.30;99.90
15115;DHT22;7658;51.456;7.622;2023-02-26T09:03:11;2.30;99.90
15115;DHT22;7658;51.456;7.622;2023-02-26T09:05:37;2.40;99.90
15115;DHT22;7658;51.456;7.622;2023-02-26T09:08:05;2.40;99.90
15115;DHT22;7658;51.456;7.622;2023-02-26T09:10:31;2.50;99.90
15115;DHT22;7658;51.456;7.622;2023-02-26T09:12:57;2.50;99.90
15115;DHT22;7658;51.456;7.622;2023-02-26T09:15:23;2.60;99.90
15115;DHT22;7658;51.456;7.622;2023-02-26T09:17:49;2.80;99.90
15115;DHT22;7658;51.456;7.622;2023-02-26T09:20:16;2.80;99.90
15115;DHT22;7658;51.456;7.622;2023-02-26T09:22:42;2.80;99.90
15115;DHT22;7658;51.456;7.622;2023-02-26T09:25:08;2.80;99.90
15115;DHT22;7658;51.456;7.622;2023-02-26T09:27:34;2.90;99.90
15115;DHT22;7658;51.456;7.622;2023-02-26T09:30:01;2.90;99.90
15115;DHT22;7658;51.456;7.622;2023-02-26T09:32:27;2.90;99.90
15115;DHT22;7658;51.456;7.622;2023-02-26T09:34:53;3.00;99.90
15115;DHT22;7658;51.456;7.622;2023-02-26T09:37:19;3.10;99.90
15115;DHT22;7658;51.456;7.622;2023-02-26T09:39:44;3.10;99.90
15115;DHT22;7658;51.456;7.622;2023-02-26T09:42:40;3.10;99.90
15115;DHT22;7658;51.456;7.622;2023-02-26T09:45:17;3.20;99.90
15115;DHT22;7658;51.456;7.622;2023-02-26T09:47:48;3.10;99.90
15115;DHT22;7658;51.456;7.622;2023-02-26T09:50:27;3.10;99.90
15115;DHT22;7658;51.456;7.622;2023-02-26T09:53:03;3.20;99.90
15115;DHT22;7658;51.456;7.622;2023-02-26T09:56:03;3.10;99.90
15115;DHT22;7658;51.456;7.622;2023-02-26T09:58:33;3.20;99.90
15115;DHT22;7658;51.456;7.622;2023-02-26T10:12:33;3.30;99.90
15115;DHT22;7658;51.456;7.622;2023-02-26T10:15:08;3.40;99.90
15115;DHT22;7658;51.456;7.622;2023-02-26T10:25:39;3.50;99.90
15115;DHT22;7658;51.456;7.622;2023-02-26T10:30:49;3.80;99.90
15115;DHT22;7658;51.456;7.622;2023-02-26T10:33:49;3.90;99.90
15115;DHT22;7658;51.456;7.622;2023-02-26T10:36:18;3.90;99.90
15115;DHT22;7658;51.456;7.622;2023-02-26T10:38:49;3.90;99.90
15115;DHT22;7658;51.456;7.622;2023-02-26T10:41:19;3.60;99.90
15115;DHT22;7658;51.456;7.622;2023-02-26T10:44:16;3.40;99.90
15115;DHT22;7658;51.456;7.622;2023-02-26T10:47:12;3.10;99.90
15115;DHT22;7658;51.456;7.622;2023-02-26T10:49:55;3.10;99.90
15115;DHT22;7658;51.456;7.622;2023-02-26T10:52:26;3.10;99.90
15115;DHT22;7658;51.456;7.622;2023-02-26T10:57:57;3.30;99.90
15115;DHT22;7658;51.456;7.622;2023-02-26T11:00:24;3.50;99.90
15115;DHT22;7658;51.456;7.622;2023-02-26T11:02:52;3.60;99.90
15115;DHT22;7658;51.456;7.622;2023-02-26T11:05:25;3.70;99.90
15115;DHT22;7658;51.456;7.622;2023-02-26T11:08:08;3.70;99.90
15115;DHT22;7658;51.456;7.622;2023-02-26T11:10:50;3.70;99.90
15115;DHT22;7658;51.456;7.622;2023-02-26T11:13:17;3.90;99.90
15115;DHT22;7658;51.456;7.622;2023-02-26T11:15:46;4.00;99.90
15115;DHT22;7658;51.456;7.622;2023-02-26T11:18:15;4.20;99.90
15115;DHT22;7658;51.456;7.622;2023-02-26T11:20:44;4.30;99.90
15115;DHT22;7658;51.456;7.622;2023-02-26T11:23:13;4.30;99.90
15115;DHT22;7658;51.456;7.622;2023-02-26T11:25:41;4.50;99.90
15115;DHT22;7658;51.456;7.622;2023-02-26T11:28:34;4.70;99.90
15115;DHT22;7658;51.456;7.622;2023-02-26T11:31:12;4.90;99.90
15115;DHT22;7658;51.456;7.622;2023-02-26T11:33:53;5.10;99.90
15115;DHT22;7658;51.456;7.622;2023-02-26T11:36:28;5.40;99.90
15115;DHT22;7658;51.456;7.622;2023-02-26T11:39:24;5.50;99.90
15115;DHT22;7658;51.456;7.622;2023-02-26T11:41:58;5.60;99.90
15115;DHT22;7658;51.456;7.622;2023-02-26T11:44:48;5.80;99.90
15115;DHT22;7658;51.456;7.622;2023-02-26T11:47:23;6.10;99.90
15115;DHT22;7658;51.456;7.622;2023-02-26T11:50:02;6.00;99.90
15115;DHT22;7658;51.456;7.622;2023-02-26T11:52:34;6.00;99.90
15115;DHT22;7658;51.456;7.622;2023-02-26T11:55:32;5.50;99.90
15115;DHT22;7658;51.456;7.622;2023-02-26T11:58:14;4.90;99.90
15115;DHT22;7658;51.456;7.622;2023-02-26T12:00:46;4.50;99.90
15115;DHT22;7658;51.456;7.622;2023-02-26T12:03:20;4.70;99.90
15115;DHT22;7658;51.456;7.622;2023-02-26T12:05:47;4.50;99.90
15115;DHT22;7658;51.456;7.622;2023-02-26T12:08:36;4.30;99.90
15115;DHT22;7658;51.456;7.622;2023-02-26T12:11:58;4.10;99.90
15115;DHT22;7658;51.456;7.622;2023-02-26T12:31:57;4.00;99.90
15115;DHT22;7658;51.456;7.622;2023-02-26T12:40:40;3.60;99.90
15115;DHT22;7658;51.456;7.622;2023-02-26T12:43:48;3.80;99.90
15115;DHT22;7658;51.456;7.622;2023-02-26T12:49:36;4.10;99.90
15115;DHT22;7658;51.456;7.622;2023-02-26T12:52:38;4.90;99.90
15115;DHT22;7658;51.456;7.622;2023-02-26T12:58:24;6.10;99.90
15115;DHT22;7658;51.456;7.622;2023-02-26T13:01:01;6.70;99.90
15115;DHT22;7658;51.456;7.622;2023-02-26T13:20:26;5.90;99.90
15115;DHT22;7658;51.456;7.622;2023-02-26T13:23:03;5.40;99.90
15115;DHT22;7658;51.456;7.622;2023-02-26T13:25:56;5.00;99.90
15115;DHT22;7658;51.456;7.622;2023-02-26T13:31:20;4.90;99.90
15115;DHT22;7658;51.456;7.622;2023-02-26T13:37:39;4.90;99.90
15115;DHT22;7658;51.456;7.622;2023-02-26T13:43:14;4.80;99.90
15115;DHT22;7658;51.456;7.622;2023-02-26T13:51:39;4.70;99.90
15115;DHT22;7658;51.456;7.622;2023-02-26T13:59:57;5.60;99.90
15115;DHT22;7658;51.456;7.622;2023-02-26T14:02:58;5.60;99.90
15115;DHT22;7658;51.456;7.622;2023-02-26T14:05:52;6.00;99.90
15115;DHT22;7658;51.456;7.622;2023-02-26T14:10:58;6.30;99.90
15115;DHT22;7658;51.456;7.622;2023-02-26T14:13:39;6.40;99.90
15115;DHT22;7658;51.456;7.622;2023-02-26T14:16:20;6.30;99.90
15115;DHT22;7658;51.456;7.622;2023-02-26T14:26:36;6.10;99.90
15115;DHT22;7658;51.456;7.622;2023-02-26T14:32:04;5.70;99.90
15115;DHT22;7658;51.456;7.622;2023-02-26T14:37:09;5.40;99.90
15115;DHT22;7658;51.456;7.622;2023-02-26T14:42:36;5.20;99.90
15115;DHT22;7658;51.456;7.622;2023-02-26T14:45:34;5.10;99.90
15115;DHT22;7658;51.456;7.622;2023-02-26T14:48:04;5.00;99.90
15115;DHT22;7658;51.456;7.622;2023-02-26T14:50:49;5.00;99.90
15115;DHT22;7658;51.456;7.622;2023-02-26T14:54:19;5.00;99.90
15115;DHT22;7658;51.456;7.622;2023-02-26T15:05:10;5.00;99.90
15115;DHT22;7658;51.456;7.622;2023-02-26T15:07:45;5.00;99.90
15115;DHT22;7658;51.456;7.622;2023-02-26T15:10:25;4.80;99.90
15115;DHT22;7658;51.456;7.622;2023-02-26T15:15:54;4.50;99.90
15115;DHT22;7658;51.456;7.622;2023-02-26T15:21:18;4.00;99.90
15115;DHT22;7658;51.456;7.622;2023-02-26T15:23:56;3.80;99.90
15115;DHT22;7658;51.456;7.622;2023-02-26T15:26:30;3.70;99.90
15115;DHT22;7658;51.456;7.622;2023-02-26T15:28:57;3.60;99.90
15115;DHT22;7658;51.456;7.622;2023-02-26T15:31:37;3.50;99.90
15115;DHT22;7658;51.456;7.622;2023-02-26T15:34:04;3.50;99.90
15115;DHT22;7658;51.456;7.622;2023-02-26T15:36:30;3.60;99.90
15115;DHT22;7658;51.456;7.622;2023-02-26T15:38:58;3.60;99.90
15115;DHT22;7658;51.456;7.622;2023-02-26T15:41:27;3.60;99.90
15115;DHT22;7658;51.456;7.622;2023-02-26T15:43:58;3.60;99.90
15115;DHT22;7658;51.456;7.622;2023-02-26T15:46:30;3.60;99.90
15115;DHT22;7658;51.456;7.622;2023-02-26T15:49:43;3.60;99.90
15115;DHT22;7658;51.456;7.622;2023-02-26T15:51:50;3.60;99.90
15115;DHT22;7658;51.456;7.622;2023-02-26T15:54:21;3.50;99.90
15115;DHT22;7658;51.456;7.622;2023-02-26T15:56:48;3.50;99.90
15115;DHT22;7658;51.456;7.622;2023-02-26T15:59:21;3.50;99.90
15115;DHT22;7658;51.456;7.622;2023-02-26T16:01:49;3.50;99.90
15115;DHT22;7658;51.456;7.622;2023-02-26T16:04:18;3.50;99.90
15115;DHT22;7658;51.456;7.622;2023-02-26T16:06:47;3.50;99.90
15115;DHT22;7658;51.456;7.622;2023-02-26T16:09:23;3.50;99.90
15115;DHT22;7658;51.456;7.622;2023-02-26T16:11:53;3.50;99.90
15115;DHT22;7658;51.456;7.622;2023-02-26T16:14:23;3.50;99.90
15115;DHT22;7658;51.456;7.622;2023-02-26T16:16:51;3.60;99.90
15115;DHT22;7658;51.456;7.622;2023-02-26T16:19:40;3.60;99.90
15115;DHT22;7658;51.456;7.622;2023-02-26T16:22:24;3.50;99.90
15115;DHT22;7658;51.456;7.622;2023-02-26T16:25:14;3.50;99.90
15115;DHT22;7658;51.456;7.622;2023-02-26T16:27:42;3.40;99.90
15115;DHT22;7658;51.456;7.622;2023-02-26T16:30:16;3.40;99.90
15115;DHT22;7658;51.456;7.622;2023-02-26T16:32:43;3.40;99.90
15115;DHT22;7658;51.456;7.622;2023-02-26T16:35:20;3.30;99.90
15115;DHT22;7658;51.456;7.622;2023-02-26T16:37:50;3.30;99.90
15115;DHT22;7658;51.456;7.622;2023-02-26T16:40:27;3.20;99.90
15115;DHT22;7658;51.456;7.622;2023-02-26T16:43:49;3.20;99.90
15115;DHT22;7658;51.456;7.622;2023-02-26T16:45:53;3.10;99.90
15115;DHT22;7658;51.456;7.622;2023-02-26T16:48:25;3.00;99.90
15115;DHT22;7658;51.456;7.622;2023-02-26T16:50:58;2.90;99.90
15115;DHT22;7658;51.456;7.622;2023-02-26T16:53:40;2.90;99.90
15115;DHT22;7658;51.456;7.622;2023-02-26T16:56:10;2.80;99.90
15115;DHT22;7658;51.456;7.622;2023-02-26T16:58:44;2.70;99.90
15115;DHT22;7658;51.456;7.622;2023-02-26T17:01:15;2.70;99.90
15115;DHT22;7658;51.456;7.622;2023-02-26T17:03:44;2.60;99.90
15115;DHT22;7658;51.456;7.622;2023-02-26T17:06:15;2.50;99.90
15115;DHT22;7658;51.456;7.622;2023-02-26T17:08:59;2.50;99.90
15115;DHT22;7658;51.456;7.622;2023-02-26T17:14:12;2.40;99.90
15115;DHT22;7658;51.456;7.622;2023-02-26T17:16:38;2.30;99.90
15115;DHT22;7658;51.456;7.622;2023-02-26T17:19:04;2.30;99.90
15115;DHT22;7658;51.456;7.622;2023-02-26T17:21:30;2.20;99.90
15115;DHT22;7658;51.456;7.622;2023-02-26T17:23:56;2.20;99.90
15115;DHT22;7658;51.456;7.622;2023-02-26T17:26:23;2.20;99.90
15115;DHT22;7658;51.456;7.622;2023-02-26T17:28:49;2.20;99.90
15115;DHT22;7658;51.456;7.622;2023-02-26T17:31:15;2.10;99.90
15115;DHT22;7658;51.456;7.622;2023-02-26T17:33:44;2.00;99.90
15115;DHT22;7658;51.456;7.622;2023-02-26T17:36:15;2.00;99.90
15115;DHT22;7658;51.456;7.622;2023-02-26T17:38:43;2.00;99.90
15115;DHT22;7658;51.456;7.622;2023-02-26T17:41:14;1.90;99.90
15115;DHT22;7658;51.456;7.622;2023-02-26T17:43:40;1.90;99.90
15115;DHT22;7658;51.456;7.622;2023-02-26T17:46:09;1.80;99.90
15115;DHT22;7658;51.456;7.622;2023-02-26T17:48:36;1.80;99.90
15115;DHT22;7658;51.456;7.622;2023-02-26T17:51:02;1.70;99.90
15115;DHT22;7658;51.456;7.622;2023-02-26T17:53:28;1.60;99.90
15115;DHT22;7658;51.456;7.622;2023-02-26T17:58:49;1.30;99.90
15115;DHT22;7658;51.456;7.622;2023-02-26T18:01:16;1.10;99.90
15115;DHT22;7658;51.456;7.622;2023-02-26T18:03:42;1.00;99.90
15115;DHT22;7658;51.456;7.622;2023-02-26T18:06:10;1.00;99.90
15115;DHT22;7658;51.456;7.622;2023-02-26T18:08:38;1.10;99.90
15115;DHT22;7658;51.456;7.622;2023-02-26T18:11:06;1.10;99.90
15115;DHT22;7658;51.456;7.622;2023-02-26T18:13:32;1.10;99.90
15115;DHT22;7658;51.456;7.622;2023-02-26T18:16:03;1.10;99.90
15115;DHT22;7658;51.456;7.622;2023-02-26T18:21:09;1.00;99.90
15115;DHT22;7658;51.456;7.622;2023-02-26T18:23:35;1.00;99.90
15115;DHT22;7658;51.456;7.622;2023-02-26T18:26:01;1.00;99.90
15115;DHT22;7658;51.456;7.622;2023-02-26T18:28:27;1.00;99.90
15115;DHT22;7658;51.456;7.622;2023-02-26T18:30:54;1.00;99.90
15115;DHT22;7658;51.456;7.622;2023-02-26T18:33:21;1.10;99.90
15115;DHT22;7658;51.456;7.622;2023-02-26T18:35:49;1.10;99.90
15115;DHT22;7658;51.456;7.622;2023-02-26T18:38:19;1.20;99.90
15115;DHT22;7658;51.456;7.622;2023-02-26T18:40:46;1.30;99.90
15115;DHT22;7658;51.456;7.622;2023-02-26T18:43:12;1.30;99.90
15115;DHT22;7658;51.456;7.622;2023-02-26T18:45:39;1.40;99.90
15115;DHT22;7658;51.456;7.622;2023-02-26T18:48:05;1.40;99.90
15115;DHT22;7658;51.456;7.622;2023-02-26T18:50:31;1.40;99.90
15115;DHT22;7658;51.456;7.622;2023-02-26T18:52:58;1.50;99.90
15115;DHT22;7658;51.456;7.622;2023-02-26T18:55:25;1.50;99.90
15115;DHT22;7658;51.456;7.622;2023-02-26T18:57:51;1.50;99.90
15115;DHT22;7658;51.456;7.622;2023-02-26T19:00:17;1.50;99.90
15115;DHT22;7658;51.456;7.622;2023-02-26T19:02:43;1.40;99.90
15115;DHT22;7658;51.456;7.622;2023-02-26T19:05:10;1.50;99.90
15115;DHT22;7658;51.456;7.622;2023-02-26T19:07:38;1.40;99.90
15115;DHT22;7658;51.456;7.622;2023-02-26T19:10:06;1.40;99.90
15115;DHT22;7658;51.456;7.622;2023-02-26T19:12:35;1.30;99.90
15115;DHT22;7658;51.456;7.622;2023-02-26T19:15:02;1.30;99.90
15115;DHT22;7658;51.456;7.622;2023-02-26T19:17:27;1.30;99.90
15115;DHT22;7658;51.456;7.622;2023-02-26T19:19:53;1.30;99.90
15115;DHT22;7658;51.456;7.622;2023-02-26T19:22:19;1.30;99.90
15115;DHT22;7658;51.456;7.622;2023-02-26T19:24:45;1.20;99.90
15115;DHT22;7658;51.456;7.622;2023-02-26T19:27:12;1.20;99.90
15115;DHT22;7658;51.456;7.622;2023-02-26T19:29:39;1.20;99.90